Time;durP1;ratioP1;P1;durP2;ratioP2;P2;SDS_P1;SDS_P2;PMS_P1;PMS_P2;Temp;Humidity;BMP_temperature;BMP_pressure;BME280_temperature;BME280_humidity;BME280_pressure;Samples;Min_cycle;Max_cycle;Signal;HPM_P1;HPM_P2
2022/06/30 00:00:19;;;;;;;10.90;7.40;;;;;;;21.32;68.08;98829.31;104732;1273;61107;-24
2022/06/30 00:02:48;;;;;;;9.40;7.10;;;;;;;21.07;68.32;98829.13;104483;1274;62743;-24
2022/06/30 00:05:15;;;;;;;10.50;6.80;;;;;;;20.84;68.90;98824.56;104817;1273;76838;-24
2022/06/30 00:07:43;;;;;;;5.30;4.30;;;;;;;20.65;69.66;98823.28;104928;1273;76102;-24
2022/06/30 00:10:11;;;;;;;5.00;4.50;;;;;;;20.98;69.65;98816.14;104933;1273;75470;-24
2022/06/30 00:12:40;;;;;;;5.90;4.80;;;;;;;21.33;68.44;98812.70;105000;1273;63250;-24
2022/06/30 00:15:08;;;;;;;6.00;5.00;;;;;;;21.30;68.20;98811.31;104834;1274;62606;-24
2022/06/30 00:17:35;;;;;;;5.20;4.50;;;;;;;21.11;68.36;98805.61;104893;1274;76650;-24
2022/06/30 00:20:03;;;;;;;5.20;4.70;;;;;;;20.88;69.04;98806.67;104872;1273;76103;-24
2022/06/30 00:22:31;;;;;;;5.20;4.70;;;;;;;20.65;69.66;98808.15;104708;1273;75314;-24
2022/06/30 00:24:59;;;;;;;5.30;4.80;;;;;;;20.45;70.21;98808.77;104696;1273;62955;-24
2022/06/30 00:27:26;;;;;;;4.60;3.80;;;;;;;20.30;70.67;98808.13;105027;1273;61433;-24
2022/06/30 00:29:53;;;;;;;8.20;4.30;;;;;;;20.75;70.23;98803.11;104966;1273;74900;-24
2022/06/30 00:32:22;;;;;;;5.50;4.30;;;;;;;21.24;68.82;98803.23;104980;1271;77330;-24
2022/06/30 00:34:50;;;;;;;7.80;4.80;;;;;;;21.26;68.12;98802.70;104684;1272;75485;-24
2022/06/30 00:37:17;;;;;;;8.20;5.00;;;;;;;21.04;68.30;98803.30;104654;1272;62197;-24
2022/06/30 00:39:45;;;;;;;7.60;4.80;;;;;;;20.75;68.96;98800.14;104928;1272;61148;-24
2022/06/30 00:42:13;;;;;;;5.80;5.10;;;;;;;20.48;69.38;98803.83;104971;1271;75782;-24
2022/06/30 00:44:40;;;;;;;5.30;4.80;;;;;;;20.20;70.49;98799.92;105055;1271;76034;-24
2022/06/30 00:47:08;;;;;;;3.90;3.50;;;;;;;19.97;71.60;98797.99;105032;1271;73484;-24
2022/06/30 00:49:35;;;;;;;4.40;3.90;;;;;;;20.32;71.37;98795.06;104809;1271;62410;-24
2022/06/30 00:52:03;;;;;;;5.20;4.40;;;;;;;20.69;70.22;98792.89;104797;1272;62679;-24
2022/06/30 00:54:30;;;;;;;5.90;4.70;;;;;;;20.67;69.81;98789.15;105009;1271;75673;-24
2022/06/30 00:56:58;;;;;;;5.40;4.90;;;;;;;20.48;69.87;98795.98;105145;1271;75292;-24
2022/06/30 00:59:25;;;;;;;6.10;5.50;;;;;;;20.26;70.53;98792.65;104720;1274;74213;-24
2022/06/30 01:01:52;;;;;;;6.40;5.60;;;;;;;20.03;70.84;98792.42;104951;1272;62851;-24
2022/06/30 01:04:20;;;;;;;7.80;3.90;;;;;;;19.86;71.50;98790.86;104885;1271;61863;-24
2022/06/30 01:06:48;;;;;;;4.30;3.80;;;;;;;20.24;71.55;98787.87;104653;1271;75439;-24
2022/06/30 01:12:41;;;;;;;5.00;4.30;;;;;;;20.72;69.97;98785.27;104915;1271;76707;-24
2022/06/30 01:14:50;;;;;;;5.50;4.80;;;;;;;20.48;70.06;98787.19;104759;1271;62672;-24
2022/06/30 01:17:17;;;;;;;5.90;4.30;;;;;;;20.21;70.53;98786.63;105002;1274;61948;-24
2022/06/30 01:24:08;;;;;;;4.70;4.20;;;;;;;19.85;72.22;98782.14;105035;1271;76908;-24
2022/06/30 01:26:43;;;;;;;4.40;4.00;;;;;;;20.60;70.55;98781.74;104884;1271;74075;-24
2022/06/30 01:29:10;;;;;;;4.60;4.20;;;;;;;20.70;69.94;98780.13;104735;1271;61977;-24
2022/06/30 01:31:38;;;;;;;6.30;4.70;;;;;;;20.54;70.17;98780.66;104893;1271;62141;-24
2022/06/30 01:34:05;;;;;;;6.60;5.20;;;;;;;20.30;70.45;98781.85;105078;1271;76632;-24
2022/06/30 01:36:33;;;;;;;9.00;4.90;;;;;;;20.05;70.77;98778.65;104988;1271;77074;-24
2022/06/30 01:39:00;;;;;;;7.30;4.90;;;;;;;19.80;71.65;98773.21;104894;1273;75148;-24
2022/06/30 01:41:27;;;;;;;4.60;3.90;;;;;;;19.61;72.64;98770.69;104865;1271;63185;-24
2022/06/30 01:43:55;;;;;;;5.20;4.20;;;;;;;19.97;72.24;98767.77;105049;1272;63236;-24
2022/06/30 01:46:22;;;;;;;6.70;4.40;;;;;;;20.35;71.30;98764.38;104952;1272;76639;-24
2022/06/30 01:48:49;;;;;;;6.50;4.70;;;;;;;20.32;70.97;98767.45;105138;1271;75949;-24
2022/06/30 01:51:17;;;;;;;5.70;4.60;;;;;;;20.10;71.36;98765.83;104945;1271;74270;-24
2022/06/30 01:53:44;;;;;;;7.40;5.00;;;;;;;19.78;73.54;98768.44;104687;1273;61165;-24
2022/06/30 01:56:12;;;;;;;5.50;5.00;;;;;;;19.52;73.37;98770.51;104744;1274;61733;-24
2022/06/30 01:58:39;;;;;;;6.50;4.00;;;;;;;19.37;74.07;98772.05;104758;1271;75525;-24
2022/06/30 02:01:07;;;;;;;4.90;3.70;;;;;;;19.78;73.52;98767.23;104764;1272;77054;-24
2022/06/30 02:03:35;;;;;;;6.70;3.90;;;;;;;20.22;71.90;98763.67;104699;1272;75575;-24
2022/06/30 02:06:02;;;;;;;6.60;4.70;;;;;;;20.22;71.64;98762.86;105113;1272;62770;-24
2022/06/30 02:08:29;;;;;;;5.30;4.50;;;;;;;20.04;71.77;98759.90;104961;1273;62852;-24
2022/06/30 02:10:57;;;;;;;5.40;4.60;;;;;;;19.80;72.33;98758.83;104868;1271;75547;-24
2022/06/30 02:13:24;;;;;;;5.60;4.90;;;;;;;19.54;73.33;98758.46;104737;1271;75696;-24
2022/06/30 02:15:52;;;;;;;4.30;3.80;;;;;;;19.40;73.66;98761.64;104683;1271;75403;-24
2022/06/30 02:18:21;;;;;;;4.00;3.50;;;;;;;19.88;73.48;98759.90;104944;1273;61175;-24
2022/06/30 02:20:48;;;;;;;4.50;4.00;;;;;;;20.44;71.65;98755.23;104890;1273;61122;-24
2022/06/30 02:23:19;;;;;;;4.50;4.10;;;;;;;20.52;70.78;98756.34;104678;1271;76379;-24
2022/06/30 02:25:46;;;;;;;6.20;4.40;;;;;;;20.36;70.73;98761.34;104909;1271;76988;-24
2022/06/30 02:28:13;;;;;;;5.40;4.70;;;;;;;20.11;71.09;98755.02;104785;1271;75521;-24
2022/06/30 02:30:41;;;;;;;9.60;5.30;;;;;;;19.92;71.80;98755.51;104594;1271;61358;-26
2022/06/30 02:33:08;;;;;;;5.90;4.30;;;;;;;19.82;72.30;98755.27;104803;1271;62855;-24
2022/06/30 02:35:36;;;;;;;5.80;4.30;;;;;;;20.33;71.93;98759.41;104725;1271;76739;-24
2022/06/30 02:38:10;;;;;;;5.50;4.50;;;;;;;20.95;70.25;98762.15;104825;1273;76743;-24
2022/06/30 02:40:39;;;;;;;5.30;4.60;;;;;;;21.03;69.57;98768.16;104588;1273;73333;-24
2022/06/30 02:43:07;;;;;;;6.60;4.90;;;;;;;20.88;69.91;98769.99;104778;1271;61118;-24
2022/06/30 02:45:34;;;;;;;9.80;6.60;;;;;;;20.76;70.15;98770.47;104782;1271;62474;-24
2022/06/30 02:48:02;;;;;;;14.30;5.40;;;;;;;20.65;70.43;98768.14;104808;1271;74862;-24
2022/06/30 02:50:29;;;;;;;8.00;4.40;;;;;;;20.66;70.43;98766.96;104642;1273;76974;-24
2022/06/30 02:52:57;;;;;;;9.10;4.50;;;;;;;21.18;69.78;98766.80;104906;1271;75121;-24
2022/06/30 02:55:25;;;;;;;5.90;4.30;;;;;;;21.87;67.62;98768.45;104905;1271;62040;-24
2022/06/30 02:57:52;;;;;;;10.00;4.70;;;;;;;22.07;66.25;98770.65;104940;1271;63105;-24
2022/06/30 03:00:19;;;;;;;22.00;5.90;;;;;;;22.05;66.16;98768.63;105085;1273;74683;-24
2022/06/30 03:02:47;;;;;;;9.10;5.30;;;;;;;21.97;66.37;98768.96;104648;1271;76080;-24
2022/06/30 03:05:14;;;;;;;10.80;5.00;;;;;;;21.88;66.45;98770.92;104824;1271;75365;-24
2022/06/30 03:07:42;;;;;;;13.00;5.20;;;;;;;21.81;66.57;98768.61;104793;1272;61392;-24
2022/06/30 03:10:09;;;;;;;6.70;5.40;;;;;;;21.77;66.61;98772.05;104751;1272;62823;-24
2022/06/30 03:12:38;;;;;;;12.60;4.90;;;;;;;21.82;66.72;98772.89;104750;1271;76548;-24
2022/06/30 03:15:06;;;;;;;8.80;4.20;;;;;;;22.50;66.15;98778.66;104799;1273;75951;-26
2022/06/30 03:17:33;;;;;;;6.90;4.30;;;;;;;23.28;63.76;98780.63;104639;1271;75409;-24
2022/06/30 03:20:01;;;;;;;8.70;5.20;;;;;;;23.53;62.29;98784.30;104943;1273;61666;-24
2022/06/30 03:22:28;;;;;;;9.80;5.30;;;;;;;23.45;61.99;98787.76;105004;1273;62736;-24
2022/06/30 03:24:56;;;;;;;16.80;6.30;;;;;;;23.34;62.33;98796.26;105096;1271;76603;-24
2022/06/30 03:27:23;;;;;;;16.50;9.70;;;;;;;23.19;62.62;98798.01;105075;1271;76688;-24
2022/06/30 03:29:50;;;;;;;13.20;7.90;;;;;;;22.95;63.43;98803.23;104853;1271;74371;-24
2022/06/30 03:32:18;;;;;;;29.80;16.60;;;;;;;22.70;64.03;98808.00;104996;1271;62026;-24
2022/06/30 03:34:45;;;;;;;39.00;17.70;;;;;;;22.33;64.89;98811.83;104931;1273;63058;-24
2022/06/30 03:37:13;;;;;;;31.80;15.00;;;;;;;21.96;66.27;98816.35;104957;1271;76459;-24
2022/06/30 03:39:40;;;;;;;21.20;11.90;;;;;;;21.74;67.27;98817.61;104810;1272;77336;-24
2022/06/30 03:42:08;;;;;;;13.80;7.50;;;;;;;22.17;66.65;98818.48;104746;1271;74370;-24
2022/06/30 03:44:36;;;;;;;11.90;7.20;;;;;;;22.75;65.09;98820.64;104613;1273;61110;-24
2022/06/30 03:47:04;;;;;;;16.60;8.80;;;;;;;23.04;63.90;98820.75;104914;1271;62007;-24
2022/06/30 03:49:33;;;;;;;13.10;7.50;;;;;;;23.10;63.13;98817.00;104813;1272;76393;-24
2022/06/30 03:52:01;;;;;;;9.00;6.30;;;;;;;23.10;63.33;98816.80;104697;1273;77028;-24
2022/06/30 03:54:28;;;;;;;8.20;6.10;;;;;;;23.13;63.10;98816.39;104720;1272;75780;-24
2022/06/30 03:56:55;;;;;;;7.50;6.20;;;;;;;23.11;63.11;98821.12;104926;1271;63112;-24
2022/06/30 03:59:23;;;;;;;6.90;6.20;;;;;;;23.06;63.37;98827.96;105097;1271;63032;-24
2022/06/30 04:01:50;;;;;;;6.90;6.10;;;;;;;23.08;63.20;98829.31;105011;1271;76590;-24
2022/06/30 04:04:18;;;;;;;8.00;6.40;;;;;;;23.05;63.12;98836.92;104735;1273;76463;-24
2022/06/30 04:06:53;;;;;;;7.10;4.50;;;;;;;23.14;63.14;98834.92;105069;1271;75757;-24
2022/06/30 04:09:20;;;;;;;6.10;5.20;;;;;;;23.79;62.23;98835.73;105031;1272;61870;-25
2022/06/30 04:11:48;;;;;;;8.90;5.80;;;;;;;24.49;60.04;98832.62;104980;1273;61840;-24
2022/06/30 04:14:15;;;;;;;6.80;5.90;;;;;;;24.76;59.10;98831.54;105032;1271;76559;-24
2022/06/30 04:16:43;;;;;;;9.00;5.80;;;;;;;24.85;58.73;98831.58;104867;1271;77365;-24
2022/06/30 04:19:11;;;;;;;6.60;6.00;;;;;;;24.94;59.01;98827.98;104770;1273;75544;-24
2022/06/30 04:21:38;;;;;;;7.70;5.90;;;;;;;25.06;58.54;98829.23;104703;1273;61197;-24
2022/06/30 04:24:06;;;;;;;6.20;5.60;;;;;;;25.12;58.41;98829.27;104730;1271;61991;-24
2022/06/30 04:26:33;;;;;;;6.00;5.40;;;;;;;25.04;58.54;98830.44;104856;1273;75574;-24
2022/06/30 04:29:02;;;;;;;6.70;5.60;;;;;;;24.92;58.44;98828.20;104728;1271;76109;-24
2022/06/30 04:34:17;;;;;;;6.50;5.90;;;;;;;24.70;58.52;98831.74;104779;1270;61149;-25
2022/06/30 04:36:45;;;;;;;5.70;5.10;;;;;;;24.47;59.12;98831.81;104901;1273;63153;-24
2022/06/30 04:39:12;;;;;;;9.70;6.00;;;;;;;24.35;59.50;98833.95;104789;1272;76449;-24
2022/06/30 04:41:40;;;;;;;6.80;6.10;;;;;;;24.48;59.09;98833.16;104757;1271;76876;-24
2022/06/30 04:44:07;;;;;;;6.10;5.50;;;;;;;24.60;58.82;98837.34;104723;1271;75152;-24
2022/06/30 04:46:35;;;;;;;8.00;5.30;;;;;;;24.70;59.03;98840.48;104613;1271;63064;-24
2022/06/30 04:49:02;;;;;;;5.70;5.10;;;;;;;24.76;58.56;98840.91;104842;1272;62091;-24
2022/06/30 04:51:29;;;;;;;5.50;4.70;;;;;;;24.72;58.15;98845.83;104892;1273;76590;-24
2022/06/30 04:53:57;;;;;;;5.50;5.00;;;;;;;24.78;58.35;98845.70;105122;1271;76798;-24
2022/06/30 04:56:24;;;;;;;5.90;5.30;;;;;;;24.96;58.29;98847.05;104692;1271;74308;-24
2022/06/30 04:58:52;;;;;;;7.30;5.20;;;;;;;25.26;57.17;98844.97;104783;1272;61108;-24
2022/06/30 05:01:19;;;;;;;6.20;5.00;;;;;;;25.52;56.90;98838.73;105080;1271;62945;-24
2022/06/30 05:03:47;;;;;;;6.20;5.10;;;;;;;25.67;56.11;98842.61;104964;1271;76781;-24
2022/06/30 05:06:14;;;;;;;7.10;5.80;;;;;;;25.95;55.60;98843.96;104823;1273;77134;-24
2022/06/30 05:08:43;;;;;;;7.50;5.30;;;;;;;26.16;53.67;98845.20;105079;1271;75370;-24
2022/06/30 05:11:11;;;;;;;7.40;5.70;;;;;;;26.09;53.99;98850.33;104856;1273;61786;-24
2022/06/30 05:13:38;;;;;;;7.90;6.10;;;;;;;26.14;53.70;98854.59;104959;1271;61802;-24
2022/06/30 05:16:06;;;;;;;6.00;5.40;;;;;;;26.17;53.48;98854.55;104964;1272;76430;-24
2022/06/30 05:18:35;;;;;;;5.80;5.10;;;;;;;26.08;53.33;98861.76;104893;1271;75712;-24
2022/06/30 05:21:02;;;;;;;9.40;5.90;;;;;;;25.41;54.05;98863.49;104758;1273;75586;-24
2022/06/30 05:23:30;;;;;;;7.50;5.70;;;;;;;25.23;54.82;98864.81;104573;1273;63080;-24
2022/06/30 05:28:43;;;;;;;9.10;8.10;;;;;;;25.86;55.76;98862.59;104558;1273;75570;-24
2022/06/30 05:31:11;;;;;;;10.00;7.50;;;;;;;25.83;55.67;98864.34;104709;1273;77012;-24
2022/06/30 05:33:38;;;;;;;8.30;7.30;;;;;;;24.95;58.05;98869.28;104906;1271;75454;-24
2022/06/30 05:36:06;;;;;;;15.60;11.00;;;;;;;24.75;58.76;98872.11;104796;1271;61802;-23
2022/06/30 05:38:34;;;;;;;11.20;6.90;;;;;;;25.18;57.75;98870.91;104826;1273;62025;-24
2022/06/30 05:41:01;;;;;;;9.40;6.10;;;;;;;25.55;56.26;98871.52;104614;1271;76578;-24
2022/06/30 05:43:29;;;;;;;6.90;6.20;;;;;;;25.79;55.32;98875.35;104614;1273;76985;-23
2022/06/30 05:45:57;;;;;;;6.10;5.60;;;;;;;26.03;54.63;98874.82;105023;1272;75408;-23
2022/06/30 05:48:24;;;;;;;8.90;7.10;;;;;;;26.21;54.23;98875.48;104889;1271;63086;-24
2022/06/30 05:50:52;;;;;;;10.30;8.40;;;;;;;25.77;55.07;98878.38;104575;1273;63409;-25
2022/06/30 05:53:24;;;;;;;8.90;8.00;;;;;;;26.01;55.30;98874.09;104795;1272;76544;-24
2022/06/30 05:55:51;;;;;;;8.50;7.00;;;;;;;25.98;55.09;98876.15;105080;1273;77116;-25
2022/06/30 05:58:18;;;;;;;7.40;6.70;;;;;;;26.08;54.81;98872.48;104890;1273;75110;-24
2022/06/30 06:00:46;;;;;;;8.70;6.60;;;;;;;26.40;53.86;98871.73;104686;1271;61803;-24
2022/06/30 06:03:13;;;;;;;9.90;6.60;;;;;;;26.48;53.66;98874.09;105094;1271;61718;-25
2022/06/30 06:05:43;;;;;;;9.50;7.00;;;;;;;26.53;53.55;98875.84;104971;1271;75521;-24
2022/06/30 06:08:12;;;;;;;6.70;6.00;;;;;;;26.17;54.31;98877.34;105072;1273;76961;-24
2022/06/30 06:10:39;;;;;;;6.90;6.20;;;;;;;26.52;53.72;98878.39;105148;1273;75144;-24
2022/06/30 06:13:07;;;;;;;6.50;5.90;;;;;;;26.83;53.21;98878.67;104788;1273;62191;-24
2022/06/30 06:15:36;;;;;;;6.90;6.20;;;;;;;27.09;52.59;98881.38;104706;1271;63007;-24
2022/06/30 06:18:04;;;;;;;8.10;6.40;;;;;;;26.69;52.56;98880.21;105016;1271;76373;-24
2022/06/30 06:20:32;;;;;;;10.20;6.60;;;;;;;26.24;54.52;98882.74;104758;1273;76029;-25
2022/06/30 06:22:59;;;;;;;9.50;6.60;;;;;;;26.89;52.90;98886.96;105001;1271;74160;-24
2022/06/30 06:25:26;;;;;;;16.60;11.60;;;;;;;27.13;52.27;98887.97;104692;1271;61154;-24
2022/06/30 06:30:40;;;;;;;9.10;6.70;;;;;;;27.40;51.93;98888.26;104918;1273;76506;-24
2022/06/30 06:33:07;;;;;;;7.80;6.60;;;;;;;26.46;52.98;98884.81;104812;1271;76996;-24
2022/06/30 06:35:35;;;;;;;8.50;6.00;;;;;;;26.78;52.67;98885.13;104736;1272;75174;-24
2022/06/30 06:38:02;;;;;;;10.30;7.50;;;;;;;27.33;51.24;98883.42;104885;1272;61173;-24
2022/06/30 06:40:30;;;;;;;7.00;6.30;;;;;;;27.79;50.51;98880.51;104951;1271;62706;-24
2022/06/30 06:42:57;;;;;;;6.70;5.70;;;;;;;28.15;49.07;98883.37;104753;1273;76701;-24
2022/06/30 06:45:25;;;;;;;8.90;5.50;;;;;;;28.38;48.82;98886.52;104622;1273;77018;-24
2022/06/30 06:47:52;;;;;;;13.30;7.50;;;;;;;28.44;49.00;98886.73;104602;1273;75259;-24
2022/06/30 06:50:20;;;;;;;12.50;5.90;;;;;;;28.45;48.47;98885.30;105022;1272;62521;-24
2022/06/30 06:52:50;;;;;;;7.10;5.70;;;;;;;28.77;46.87;98887.66;104952;1271;62865;-24
2022/06/30 06:55:19;;;;;;;6.50;4.70;;;;;;;28.88;46.52;98885.02;104995;1273;76462;-24
2022/06/30 06:57:47;;;;;;;5.90;5.40;;;;;;;28.88;45.90;98882.11;105059;1273;75838;-24
2022/06/30 07:00:15;;;;;;;10.40;5.30;;;;;;;28.89;46.53;98875.86;105013;1271;75485;-24
2022/06/30 07:02:42;;;;;;;6.10;5.40;;;;;;;29.09;45.57;98874.53;104863;1273;61139;-24
2022/06/30 07:05:09;;;;;;;9.00;6.00;;;;;;;29.17;44.82;98877.98;104890;1271;63070;-23
2022/06/30 07:07:37;;;;;;;8.00;5.30;;;;;;;29.11;44.57;98878.34;104564;1273;75714;-24
2022/06/30 07:10:05;;;;;;;6.60;5.90;;;;;;;29.08;45.05;98880.89;104804;1273;76257;-24
2022/06/30 07:12:36;;;;;;;8.10;5.50;;;;;;;29.42;44.66;98883.45;104416;1273;74288;-24
2022/06/30 07:15:05;;;;;;;6.40;5.80;;;;;;;29.24;44.50;98881.23;104870;1273;61032;-24
2022/06/30 07:17:36;;;;;;;6.30;5.10;;;;;;;28.99;45.17;98875.16;104654;1271;62369;-24
2022/06/30 07:20:04;;;;;;;6.30;5.20;;;;;;;29.47;44.68;98875.67;104678;1271;75213;-24
2022/06/30 07:22:31;;;;;;;6.80;5.20;;;;;;;29.72;45.04;98878.52;104657;1273;75919;-24
2022/06/30 07:24:59;;;;;;;6.10;5.30;;;;;;;29.54;44.98;98874.61;104589;1273;75731;-24
2022/06/30 07:27:26;;;;;;;6.00;4.90;;;;;;;29.77;44.55;98877.17;105040;1273;62026;-24
2022/06/30 07:33:37;;;;;;;6.50;4.80;;;;;;;30.10;44.87;98872.55;105027;1272;75576;-24
2022/06/30 07:36:04;;;;;;;5.20;4.40;;;;;;;30.18;44.45;98876.25;104953;1271;75846;-24
2022/06/30 07:38:31;;;;;;;5.90;5.20;;;;;;;30.30;44.04;98879.23;105053;1271;74375;-24
2022/06/30 07:40:59;;;;;;;5.60;5.10;;;;;;;29.89;43.94;98881.94;104982;1272;61749;-24
2022/06/30 07:43:26;;;;;;;5.40;4.90;;;;;;;29.88;45.08;98884.39;104980;1271;62127;-24
2022/06/30 07:45:53;;;;;;;7.10;5.00;;;;;;;30.16;44.46;98882.19;105073;1271;76346;-24
2022/06/30 07:48:21;;;;;;;8.40;5.10;;;;;;;30.38;44.54;98882.17;104703;1273;77130;-24
2022/06/30 07:54:32;;;;;;;5.70;4.70;;;;;;;31.00;42.74;98885.45;105082;1271;62383;-24
2022/06/30 07:57:35;;;;;;;5.30;4.80;;;;;;;31.16;42.59;98889.18;104911;1273;61046;-24
2022/06/30 08:00:05;;;;;;;9.40;7.50;;;;;;;31.17;42.40;98888.00;105044;1273;75366;-24
2022/06/30 08:02:38;;;;;;;7.00;4.90;;;;;;;31.12;42.54;98892.92;104821;1273;77079;-24
2022/06/30 08:05:06;;;;;;;5.10;4.60;;;;;;;31.24;41.76;98890.63;104988;1271;75170;-24
2022/06/30 08:07:36;;;;;;;4.80;4.40;;;;;;;31.33;42.41;98887.41;104850;1273;61799;-24
2022/06/30 08:13:51;;;;;;;5.40;4.60;;;;;;;31.16;42.46;98886.20;105086;1272;76373;-24
2022/06/30 08:16:18;;;;;;;5.70;4.90;;;;;;;30.64;42.83;98889.09;105093;1271;76986;-24
2022/06/30 08:18:48;;;;;;;5.20;4.30;;;;;;;30.91;43.76;98884.42;104972;1272;75454;-24
2022/06/30 08:21:16;;;;;;;5.30;4.80;;;;;;;31.06;43.54;98886.73;104952;1273;63152;-24
2022/06/30 08:23:43;;;;;;;5.30;4.80;;;;;;;31.05;43.69;98891.07;104759;1272;61968;-24
2022/06/30 08:26:12;;;;;;;5.00;4.60;;;;;;;31.12;42.10;98886.05;104764;1273;74438;-24
2022/06/30 08:28:40;;;;;;;5.10;4.10;;;;;;;31.26;43.37;98888.23;104664;1273;75384;-24
2022/06/30 08:31:15;;;;;;;6.50;4.60;;;;;;;31.61;42.83;98890.06;104692;1272;75465;-24
2022/06/30 08:33:44;;;;;;;17.10;15.30;;;;;;;31.80;41.78;98886.91;104643;1271;63352;-24
2022/06/30 08:36:11;;;;;;;5.80;5.20;;;;;;;31.42;42.40;98889.56;104754;1272;62197;-24
2022/06/30 08:38:39;;;;;;;14.50;13.00;;;;;;;31.32;41.34;98883.14;104981;1271;76007;-24
2022/06/30 08:43:52;;;;;;;5.50;4.90;;;;;;;31.65;41.01;98885.70;104663;1271;74372;-24
2022/06/30 08:46:20;;;;;;;6.40;4.80;;;;;;;31.74;40.84;98888.79;105053;1271;61917;-24
2022/06/30 08:48:48;;;;;;;6.80;5.00;;;;;;;32.15;39.85;98883.92;104711;1273;62760;-24
2022/06/30 08:51:15;;;;;;;6.40;4.70;;;;;;;32.36;39.71;98881.11;104591;1273;76386;-24
2022/06/30 08:53:51;;;;;;;54.40;40.60;;;;;;;31.93;40.42;98882.74;104724;1273;75936;-24
2022/06/30 08:56:19;;;;;;;8.70;7.40;;;;;;;30.82;41.70;98883.20;104704;1273;75498;-24
2022/06/30 08:58:48;;;;;;;14.20;11.80;;;;;;;31.58;41.75;98886.79;104693;1273;62745;-24
2022/06/30 09:01:16;;;;;;;9.80;8.10;;;;;;;31.81;40.34;98881.96;104833;1273;62881;-24
2022/06/30 09:03:44;;;;;;;12.80;10.20;;;;;;;31.24;41.25;98881.33;104856;1273;74557;-24
2022/06/30 09:06:33;;;;;;;8.00;5.50;;;;;;;31.26;41.18;98880.77;105035;1273;77793;-24
2022/06/30 09:09:04;;;;;;;6.20;5.60;;;;;;;31.33;40.79;98883.30;104952;1273;75626;-24
2022/06/30 09:11:51;;;;;;;22.00;13.40;;;;;;;31.00;41.63;98883.96;105019;1272;62896;-24
2022/06/30 09:14:34;;;;;;;6.70;5.90;;;;;;;31.55;41.79;98885.38;104748;1273;62043;-24
2022/06/30 09:17:03;;;;;;;5.40;4.90;;;;;;;32.29;40.46;98881.86;104776;1272;76516;-24
2022/06/30 09:19:32;;;;;;;6.10;5.40;;;;;;;32.70;38.87;98876.89;104935;1274;76945;-24
2022/06/30 09:25:49;;;;;;;6.00;5.40;;;;;;;32.32;39.45;98880.08;105015;1271;62915;-24
2022/06/30 09:28:36;;;;;;;;;;;;;;;32.57;39.05;98880.39;104910;1273;61216;-24
2022/06/30 09:34:49;;;;;;;15.50;8.80;;;;;;;32.78;38.75;98876.92;105105;1272;76809;-24
2022/06/30 09:37:23;;;;;;;6.80;6.00;;;;;;;31.49;40.26;98870.17;104478;1273;75395;-24
2022/06/30 09:39:53;;;;;;;7.40;6.30;;;;;;;30.82;42.33;98870.13;104817;1273;61848;-24
2022/06/30 09:42:42;;;;;;;6.20;4.90;;;;;;;31.73;40.66;98873.50;104754;1274;63030;-24
2022/06/30 09:45:37;;;;;;;9.90;5.70;;;;;;;32.17;40.22;98864.19;104843;1271;76518;-24
2022/06/30 09:51:51;;;;;;;15.20;9.30;;;;;;;32.49;39.35;98864.36;104832;1273;74267;-24
2022/06/30 09:54:19;;;;;;;10.70;5.70;;;;;;;32.94;39.47;98863.80;104679;1273;61693;-24
2022/06/30 09:57:04;;;;;;;9.10;5.30;;;;;;;33.48;38.00;98861.70;105104;1273;63053;-24
2022/06/30 10:07:15;;;;;;;8.90;5.90;;;;;;;33.06;37.43;98855.59;105068;1271;75752;-24
2022/06/30 10:09:50;;;;;;;5.80;5.30;;;;;;;33.45;37.39;98855.08;104904;1273;61109;-25
2022/06/30 10:16:00;;;;;;;5.80;5.20;;;;;;;34.17;36.31;98845.27;104890;1273;76629;-25
2022/06/30 10:18:27;;;;;;;9.20;5.50;;;;;;;33.62;36.27;98845.35;104736;1273;76869;-24
2022/06/30 10:20:55;;;;;;;5.10;4.60;;;;;;;33.69;35.86;98845.01;104693;1273;75525;-24
2022/06/30 10:23:23;;;;;;;7.30;5.40;;;;;;;33.54;36.15;98844.80;104787;1273;62929;-24
2022/06/30 10:25:52;;;;;;;11.70;10.50;;;;;;;32.94;37.39;98843.30;105049;1271;61078;-24
2022/06/30 10:28:22;;;;;;;5.40;4.90;;;;;;;33.41;36.57;98843.06;104629;1273;75026;-24
2022/06/30 10:31:00;;;;;;;5.80;4.80;;;;;;;34.22;36.44;98842.03;104787;1274;74566;-24
2022/06/30 10:33:43;;;;;;;5.80;4.40;;;;;;;34.54;34.51;98844.91;105118;1273;74366;-24
2022/06/30 10:40:18;;;;;;;4.40;4.00;;;;;;;34.00;35.03;98839.06;105088;1273;61171;-24
2022/06/30 10:42:50;;;;;;;4.90;4.50;;;;;;;34.74;34.09;98836.29;105085;1273;73891;-24
2022/06/30 10:45:27;;;;;;;11.40;9.00;;;;;;;34.82;34.44;98833.16;104782;1271;76599;-24
2022/06/30 10:47:58;;;;;;;6.10;5.30;;;;;;;33.46;35.62;98832.52;104962;1273;75025;-24
2022/06/30 10:50:30;;;;;;;13.50;10.00;;;;;;;34.13;35.25;98828.02;104876;1273;61092;-24
2022/06/30 10:52:58;;;;;;;6.90;5.30;;;;;;;33.80;35.83;98828.81;104751;1273;61069;-24
2022/06/30 10:55:25;;;;;;;5.90;4.80;;;;;;;34.43;33.82;98825.80;105115;1272;75107;-24
2022/06/30 10:58:02;;;;;;;7.20;5.20;;;;;;;33.95;34.62;98828.14;104827;1273;76827;-24
2022/06/30 11:00:46;;;;;;;9.00;5.80;;;;;;;34.40;34.75;98823.90;104747;1273;74929;-25
2022/06/30 11:03:35;;;;;;;6.80;4.30;;;;;;;33.81;34.62;98825.68;105025;1271;61054;-24
2022/06/30 11:06:13;;;;;;;6.90;4.80;;;;;;;33.21;35.66;98820.80;104891;1273;61067;-24
2022/06/30 11:08:52;;;;;;;8.10;7.30;;;;;;;33.46;35.16;98820.21;104669;1273;72761;-24
2022/06/30 11:11:20;;;;;;;11.00;8.40;;;;;;;33.54;35.07;98820.80;105127;1271;76982;-24
2022/06/30 11:13:49;;;;;;;5.60;5.10;;;;;;;32.91;35.01;98821.54;105075;1271;72087;-24
2022/06/30 11:16:18;;;;;;;9.40;7.20;;;;;;;33.08;35.68;98819.50;104742;1271;61982;-24
2022/06/30 11:18:46;;;;;;;4.90;4.50;;;;;;;33.30;35.89;98820.33;104699;1272;61142;-24
2022/06/30 11:21:14;;;;;;;11.90;7.10;;;;;;;34.05;34.74;98812.99;104918;1273;75392;-25
2022/06/30 11:23:45;;;;;;;6.00;5.30;;;;;;;33.61;35.83;98817.40;105017;1271;74761;-24
2022/06/30 11:29:14;;;;;;;5.60;5.00;;;;;;;33.03;36.19;98819.19;104735;1274;62822;-25
2022/06/30 11:31:42;;;;;;;5.00;3.90;;;;;;;33.44;35.51;98816.02;104882;1273;61157;-24
2022/06/30 11:34:20;;;;;;;5.80;4.10;;;;;;;33.49;36.13;98806.65;105074;1271;72876;-24
2022/06/30 11:36:49;;;;;;;5.00;4.60;;;;;;;33.73;35.24;98807.02;105083;1272;74855;-24
2022/06/30 11:39:18;;;;;;;5.50;4.60;;;;;;;34.16;35.51;98806.17;105112;1271;75173;-25
2022/06/30 11:42:06;;;;;;;5.50;5.00;;;;;;;33.69;35.13;98811.91;104862;1273;61126;-24
2022/06/30 11:44:38;;;;;;;5.00;4.50;;;;;;;34.00;34.66;98810.88;104702;1273;61043;-25
2022/06/30 11:47:18;;;;;;;4.90;4.40;;;;;;;34.35;34.31;98805.79;104657;1271;348946;-25
2022/06/30 11:49:52;;;;;;;4.80;4.30;;;;;;;34.59;34.61;98803.63;104910;1272;76984;-25
2022/06/30 11:52:22;;;;;;;4.60;4.20;;;;;;;34.82;34.81;98805.20;104763;1274;75141;-25
2022/06/30 11:54:54;;;;;;;4.80;4.30;;;;;;;35.12;33.89;98800.45;104745;1273;62056;-25
2022/06/30 11:57:33;;;;;;;7.30;4.80;;;;;;;34.87;32.69;98801.88;104755;1272;60980;-24
2022/06/30 12:00:04;;;;;;;4.70;4.10;;;;;;;34.58;34.85;98800.10;105055;1271;76519;-23
2022/06/30 12:02:35;;;;;;;4.70;4.30;;;;;;;34.15;34.37;98800.68;105038;1273;77037;-23
2022/06/30 12:05:05;;;;;;;4.80;3.90;;;;;;;33.84;35.49;98796.55;104656;1274;74439;-23
2022/06/30 12:07:34;;;;;;;5.50;4.90;;;;;;;32.63;36.53;98802.23;104864;1273;63158;-23
2022/06/30 12:10:01;;;;;;;5.30;4.50;;;;;;;32.51;37.02;98802.21;104723;1276;62695;-23
2022/06/30 12:12:29;;;;;;;32.00;8.50;;;;;;;33.02;35.85;98798.95;104788;1271;75739;-23
2022/06/30 12:14:58;;;;;;;21.80;13.50;;;;;;;33.06;36.29;98801.59;104630;1273;76131;-23
2022/06/30 12:17:52;;;;;;;10.70;7.50;;;;;;;31.85;37.78;98801.14;104836;1274;75426;-23
2022/06/30 12:20:21;;;;;;;5.60;4.10;;;;;;;32.47;35.98;98801.98;104716;1273;61059;-23
2022/06/30 12:22:50;;;;;;;6.50;4.90;;;;;;;32.91;35.88;98803.16;104796;1272;63040;-23
2022/06/30 12:25:17;;;;;;;4.90;3.90;;;;;;;33.12;35.54;98803.89;104837;1274;75359;-23
2022/06/30 12:27:47;;;;;;;5.50;4.10;;;;;;;33.46;35.19;98800.36;104881;1273;77028;-23
2022/06/30 12:30:16;;;;;;;9.00;5.30;;;;;;;32.97;34.20;98801.30;104758;1271;75380;-23
2022/06/30 12:32:55;;;;;;;5.60;4.40;;;;;;;32.41;34.41;98805.66;104837;1273;63277;-23